Time;durP1;ratioP1;P1;durP2;ratioP2;P2;SDS_P1;SDS_P2;PMS_P1;PMS_P2;Temp;Humidity;BMP_temperature;BMP_pressure;BME280_temperature;BME280_humidity;BME280_pressure;Samples;Min_cycle;Max_cycle;Signal;HPM_P1;HPM_P2
2021/09/02 00:02:20;;;;;;;8.82;8.02;;;17.90;79.50;;;;;;5012397;28;20187;-91
2021/09/02 00:04:46;;;;;;;9.32;8.50;;;17.90;79.20;;;;;;5007054;28;20689;-90
2021/09/02 00:07:12;;;;;;;10.40;8.35;;;17.90;79.00;;;;;;5006459;28;20196;-90
2021/09/02 00:09:37;;;;;;;8.63;7.82;;;17.80;79.30;;;;;;5005056;28;20186;-90
2021/09/02 00:12:03;;;;;;;8.88;8.07;;;17.80;80.10;;;;;;4991153;28;20201;-90
2021/09/02 00:14:29;;;;;;;7.75;7.13;;;17.80;79.50;;;;;;5005262;28;20303;-90
2021/09/02 00:16:55;;;;;;;8.77;7.97;;;17.80;79.50;;;;;;4992917;28;20256;-89
2021/09/02 00:19:21;;;;;;;8.52;7.13;;;17.90;79.20;;;;;;5012376;28;20194;-89
2021/09/02 00:21:47;;;;;;;8.32;7.53;;;18.00;78.70;;;;;;4987496;28;20281;-90
2021/09/02 00:24:13;;;;;;;8.38;7.57;;;18.00;78.60;;;;;;5006390;28;20197;-89
2021/09/02 00:26:42;;;;;;;8.85;8.00;;;17.90;78.70;;;;;;5003980;28;20190;-89
2021/09/02 00:29:09;;;;;;;8.95;7.47;;;17.90;78.50;;;;;;5006044;28;20197;-90
2021/09/02 00:31:34;;;;;;;8.00;7.40;;;17.90;78.40;;;;;;5004641;28;20186;-90
2021/09/02 00:34:00;;;;;;;8.13;7.53;;;17.90;77.50;;;;;;5004604;28;20249;-89
2021/09/02 00:36:26;;;;;;;7.93;7.32;;;17.90;77.50;;;;;;5020957;28;20633;-90
2021/09/02 00:38:52;;;;;;;8.68;7.53;;;17.90;77.30;;;;;;5004403;28;20284;-89
2021/09/02 00:41:18;;;;;;;7.95;7.25;;;17.80;76.70;;;;;;5001106;28;20288;-90
2021/09/02 00:43:44;;;;;;;7.50;6.90;;;17.70;77.00;;;;;;5005226;28;20210;-89
2021/09/02 00:46:11;;;;;;;8.38;7.72;;;17.70;77.50;;;;;;5004481;28;20248;-91
2021/09/02 00:48:37;;;;;;;8.25;7.55;;;17.50;78.00;;;;;;5005846;28;20194;-89
2021/09/02 00:51:03;;;;;;;9.88;7.97;;;17.30;78.70;;;;;;5002613;28;20227;-90
2021/09/02 00:53:31;;;;;;;8.40;7.63;;;17.00;79.70;;;;;;4994442;28;20263;-91
2021/09/02 00:55:57;;;;;;;9.13;8.33;;;16.80;80.40;;;;;;5005661;28;20219;-89
2021/09/02 00:58:22;;;;;;;9.00;8.20;;;16.60;81.80;;;;;;5005611;28;20191;-90
2021/09/02 01:00:48;;;;;;;9.60;8.23;;;16.50;83.00;;;;;;5005354;28;20205;-90
2021/09/02 01:03:19;;;;;;;9.83;8.93;;;16.30;83.90;;;;;;5004368;28;20218;-89
2021/09/02 01:05:48;;;;;;;9.53;8.63;;;16.20;84.70;;;;;;5003984;28;20209;-89
2021/09/02 01:08:15;;;;;;;9.83;8.47;;;16.10;84.90;;;;;;5007207;28;20234;-90
2021/09/02 01:10:42;;;;;;;9.27;8.30;;;16.10;85.60;;;;;;5004719;28;20194;-91
2021/09/02 01:13:08;;;;;;;8.67;7.87;;;16.20;85.60;;;;;;5005082;28;20261;-89
2021/09/02 01:15:34;;;;;;;11.00;8.77;;;16.40;84.60;;;;;;5005576;28;20321;-89
2021/09/02 01:18:00;;;;;;;9.40;8.43;;;16.50;84.10;;;;;;5005087;28;20186;-89
2021/09/02 01:20:28;;;;;;;9.63;8.57;;;16.50;83.80;;;;;;5000729;28;20616;-89
2021/09/02 01:22:57;;;;;;;9.03;8.33;;;16.70;83.20;;;;;;5001520;28;20187;-90
2021/09/02 01:25:36;;;;;;;8.97;8.17;;;16.60;83.00;;;;;;5003008;28;20234;-90
2021/09/02 01:28:07;;;;;;;9.17;8.27;;;16.60;83.00;;;;;;5003406;28;20187;-90
2021/09/02 01:30:34;;;;;;;8.50;7.70;;;16.50;83.20;;;;;;5019722;28;20221;-89
2021/09/02 01:33:00;;;;;;;9.23;8.43;;;16.50;83.20;;;;;;5003577;28;20208;-90
2021/09/02 01:35:31;;;;;;;9.50;8.60;;;16.50;83.50;;;;;;5007829;28;20229;-89
2021/09/02 01:38:00;;;;;;;8.57;7.77;;;16.20;84.70;;;;;;5026972;28;20226;-90
2021/09/02 01:40:35;;;;;;;10.50;9.00;;;16.00;85.20;;;;;;5005111;28;20179;-89
2021/09/02 01:43:03;;;;;;;9.27;8.47;;;15.90;86.00;;;;;;4996553;28;20199;-89
2021/09/02 01:45:29;;;;;;;9.57;8.67;;;15.80;86.40;;;;;;4996008;28;20207;-92
2021/09/02 01:48:00;;;;;;;9.37;8.60;;;15.90;86.20;;;;;;5013428;28;20186;-90
2021/09/02 01:50:28;;;;;;;9.77;8.77;;;15.90;87.30;;;;;;5008307;28;20186;-90
2021/09/02 01:52:56;;;;;;;8.83;8.03;;;15.90;86.30;;;;;;5005333;28;20193;-89
2021/09/02 01:55:24;;;;;;;8.60;7.80;;;16.00;86.20;;;;;;5003564;28;20210;-90
2021/09/02 01:57:51;;;;;;;10.00;7.70;;;16.10;85.60;;;;;;5001872;28;20232;-89
2021/09/02 02:00:17;;;;;;;9.57;8.73;;;16.20;84.70;;;;;;5003140;28;20190;-89
2021/09/02 02:02:44;;;;;;;9.80;7.80;;;16.20;84.70;;;;;;4985817;28;20732;-90
2021/09/02 02:05:11;;;;;;;9.00;8.13;;;16.20;84.90;;;;;;5009990;28;20268;-92
2021/09/02 02:07:38;;;;;;;10.07;9.17;;;16.20;84.70;;;;;;5015105;28;20204;-92
2021/09/02 02:10:06;;;;;;;9.47;8.67;;;16.20;84.20;;;;;;5005339;28;20202;-90
2021/09/02 02:12:32;;;;;;;9.57;8.67;;;16.20;84.40;;;;;;5015891;28;20178;-89
2021/09/02 02:14:58;;;;;;;10.13;9.23;;;16.10;84.70;;;;;;5002926;28;20274;-90
2021/09/02 02:17:23;;;;;;;9.73;8.93;;;16.10;85.00;;;;;;5003880;28;20210;-89
2021/09/02 02:19:49;;;;;;;9.40;8.60;;;16.00;85.20;;;;;;5003675;28;20194;-90
2021/09/02 02:22:15;;;;;;;9.97;8.70;;;16.00;85.20;;;;;;5002420;28;20194;-90
2021/09/02 02:24:40;;;;;;;8.83;7.80;;;16.10;85.30;;;;;;5003907;28;20233;-89
2021/09/02 02:27:06;;;;;;;8.97;8.07;;;16.20;84.70;;;;;;5002912;28;20186;-90
2021/09/02 02:29:32;;;;;;;9.80;8.20;;;16.30;84.40;;;;;;5004379;28;20213;-89
2021/09/02 02:31:58;;;;;;;8.63;7.83;;;16.40;83.90;;;;;;5004261;28;20197;-88
2021/09/02 02:34:24;;;;;;;9.20;8.30;;;16.50;83.50;;;;;;5003684;28;20240;-88
2021/09/02 02:36:49;;;;;;;9.50;8.70;;;16.50;83.00;;;;;;5003659;28;20220;-89
2021/09/02 02:39:15;;;;;;;9.43;8.43;;;16.40;82.80;;;;;;5002340;28;20201;-88
2021/09/02 02:41:41;;;;;;;8.43;7.63;;;16.40;83.40;;;;;;4987659;28;20209;-88
2021/09/02 02:44:07;;;;;;;8.63;7.83;;;16.40;83.40;;;;;;5003714;28;20209;-87
2021/09/02 02:46:33;;;;;;;10.03;9.07;;;16.40;83.00;;;;;;4982737;28;20222;-89
2021/09/02 02:48:59;;;;;;;9.20;8.30;;;16.40;83.00;;;;;;5002488;28;20669;-88
2021/09/02 02:51:24;;;;;;;10.07;9.17;;;16.40;83.20;;;;;;5003277;28;20232;-89
2021/09/02 02:53:51;;;;;;;9.87;8.97;;;16.40;82.80;;;;;;5003658;28;20207;-88
2021/09/02 02:56:16;;;;;;;9.73;8.83;;;16.30;83.00;;;;;;5005138;28;20326;-88
2021/09/02 02:58:44;;;;;;;9.07;8.17;;;16.30;83.30;;;;;;4969994;28;20192;-88
2021/09/02 03:01:11;;;;;;;9.07;8.17;;;16.30;83.70;;;;;;5018301;28;20200;-89
2021/09/02 03:03:37;;;;;;;9.47;8.53;;;16.30;82.80;;;;;;5004377;28;20199;-88
2021/09/02 03:06:02;;;;;;;9.63;8.77;;;16.30;83.30;;;;;;5004877;28;20214;-88
2021/09/02 03:08:28;;;;;;;9.53;8.67;;;16.30;82.60;;;;;;5004845;28;20684;-89
2021/09/02 03:10:54;;;;;;;10.80;9.43;;;16.30;82.80;;;;;;5003922;28;20194;-89
2021/09/02 03:13:20;;;;;;;9.93;8.70;;;16.30;82.60;;;;;;5002951;28;20201;-88
2021/09/02 03:15:45;;;;;;;10.03;9.07;;;16.30;82.80;;;;;;5002873;28;20217;-89
2021/09/02 03:18:11;;;;;;;9.20;8.30;;;16.20;82.60;;;;;;5000789;28;20186;-88
2021/09/02 03:20:37;;;;;;;9.57;8.60;;;16.10;83.10;;;;;;5003477;28;20481;-89
2021/09/02 03:23:03;;;;;;;8.67;7.87;;;16.10;84.30;;;;;;5018594;28;20189;-89
2021/09/02 03:25:28;;;;;;;10.27;9.03;;;16.00;83.40;;;;;;5003315;28;20216;-89
2021/09/02 03:27:54;;;;;;;8.70;7.80;;;16.00;83.90;;;;;;5001038;28;20213;-88
2021/09/02 03:30:20;;;;;;;10.97;8.73;;;16.00;83.90;;;;;;5002034;28;20205;-88
2021/09/02 03:32:46;;;;;;;9.17;8.30;;;16.00;83.40;;;;;;4982473;28;20706;-88
2021/09/02 03:35:12;;;;;;;9.20;8.17;;;16.10;83.30;;;;;;5000129;28;20276;-88
2021/09/02 03:37:37;;;;;;;9.47;8.40;;;16.10;82.90;;;;;;4985562;28;20240;-88
2021/09/02 03:40:05;;;;;;;9.20;8.40;;;16.00;82.90;;;;;;5011583;28;20261;-89
2021/09/02 03:42:30;;;;;;;9.33;8.47;;;16.10;83.60;;;;;;5004460;28;20802;-89
2021/09/02 03:44:56;;;;;;;10.03;9.10;;;16.00;82.60;;;;;;5001295;28;20506;-89
2021/09/02 03:47:22;;;;;;;9.70;8.83;;;16.10;82.90;;;;;;5001149;28;20258;-88
2021/09/02 03:49:48;;;;;;;10.80;8.53;;;15.90;83.00;;;;;;4971959;28;20206;-89
2021/09/02 03:52:13;;;;;;;10.60;8.93;;;15.80;83.10;;;;;;5001901;28;20205;-88
2021/09/02 03:54:39;;;;;;;9.77;8.80;;;15.80;83.50;;;;;;5019487;28;20213;-88
2021/09/02 03:57:05;;;;;;;8.80;8.10;;;15.80;83.90;;;;;;5001456;28;20690;-89
2021/09/02 03:59:31;;;;;;;9.13;8.20;;;15.70;83.70;;;;;;4989087;28;20245;-89
2021/09/02 04:01:57;;;;;;;10.10;9.17;;;15.70;84.70;;;;;;5005410;28;20194;-88
2021/09/02 04:04:22;;;;;;;10.53;9.50;;;15.60;84.30;;;;;;5018426;28;20236;-88
2021/09/02 04:06:48;;;;;;;9.97;9.07;;;15.40;84.90;;;;;;5006110;28;20187;-89
2021/09/02 04:09:14;;;;;;;9.53;8.73;;;15.50;85.20;;;;;;5005492;28;20297;-89
2021/09/02 04:11:40;;;;;;;10.73;8.90;;;15.50;84.60;;;;;;5000479;28;20198;-89
2021/09/02 04:14:05;;;;;;;11.07;9.47;;;15.50;84.30;;;;;;5002930;28;20212;-88
2021/09/02 04:16:31;;;;;;;10.37;9.37;;;15.50;84.70;;;;;;5010974;28;20214;-88
2021/09/02 04:18:57;;;;;;;10.20;9.40;;;15.50;84.50;;;;;;5004982;28;20252;-89
2021/09/02 04:21:23;;;;;;;11.53;9.17;;;15.50;84.80;;;;;;5001853;28;20714;-89
2021/09/02 04:23:49;;;;;;;11.87;9.77;;;15.50;84.60;;;;;;5000667;28;20246;-89
2021/09/02 04:26:15;;;;;;;11.93;10.60;;;15.50;84.50;;;;;;5004704;28;20222;-91
2021/09/02 04:28:41;;;;;;;10.20;9.10;;;15.50;84.00;;;;;;5019965;28;20252;-88
2021/09/02 04:31:07;;;;;;;10.57;9.67;;;15.50;84.30;;;;;;5016188;28;20208;-90
2021/09/02 04:33:33;;;;;;;10.03;9.13;;;15.40;84.40;;;;;;5007338;28;20200;-90
2021/09/02 04:35:59;;;;;;;9.30;8.50;;;15.40;84.50;;;;;;4993333;28;20213;-93
2021/09/02 04:38:24;;;;;;;10.17;9.17;;;15.40;84.80;;;;;;5020105;28;20182;-91
2021/09/02 04:40:51;;;;;;;10.70;9.57;;;15.30;85.30;;;;;;5001090;28;20265;-89
2021/09/02 04:43:17;;;;;;;10.83;9.73;;;15.40;84.30;;;;;;5005637;28;20197;-90
2021/09/02 04:45:43;;;;;;;11.10;9.90;;;15.30;85.00;;;;;;5008310;28;20218;-89
2021/09/02 04:48:18;;;;;;;11.93;10.73;;;15.10;85.40;;;;;;5012055;28;20251;-91
2021/09/02 04:50:45;;;;;;;11.67;10.33;;;15.00;85.40;;;;;;5019787;28;20194;-90
2021/09/02 04:53:12;;;;;;;11.90;10.70;;;14.90;86.20;;;;;;5012575;28;20216;-89
2021/09/02 04:55:38;;;;;;;11.27;10.17;;;14.80;86.80;;;;;;5009374;28;20246;-90
2021/09/02 04:58:08;;;;;;;15.13;10.50;;;14.70;87.10;;;;;;5005494;28;20222;-90
2021/09/02 05:00:37;;;;;;;11.17;10.07;;;14.60;88.10;;;;;;5016105;28;20203;-90
2021/09/02 05:03:03;;;;;;;12.40;11.03;;;14.60;88.30;;;;;;5005061;28;20201;-90
2021/09/02 05:05:29;;;;;;;11.80;10.70;;;14.50;88.20;;;;;;5006500;28;20220;-90
2021/09/02 05:07:55;;;;;;;12.43;11.23;;;14.50;88.30;;;;;;5004470;28;20221;-91
2021/09/02 05:10:21;;;;;;;12.63;11.37;;;14.40;89.10;;;;;;4991989;28;20218;-91
2021/09/02 05:12:47;;;;;;;16.10;11.63;;;14.40;89.20;;;;;;5001369;28;20213;-91
2021/09/02 05:15:13;;;;;;;13.37;12.07;;;14.30;89.40;;;;;;5004562;28;20245;-91
2021/09/02 05:17:39;;;;;;;14.40;12.17;;;14.30;89.70;;;;;;5018762;28;20689;-90
2021/09/02 05:20:06;;;;;;;13.47;12.27;;;14.10;90.30;;;;;;4997677;28;20290;-90
2021/09/02 05:22:32;;;;;;;12.37;10.77;;;14.10;90.70;;;;;;4993394;28;20194;-90
2021/09/02 05:24:57;;;;;;;14.87;11.83;;;14.20;90.50;;;;;;5004240;28;20222;-91
2021/09/02 05:27:23;;;;;;;13.10;11.90;;;14.20;90.30;;;;;;5000407;28;20274;-92
2021/09/02 05:29:49;;;;;;;14.03;12.17;;;14.00;91.10;;;;;;5002002;28;20193;-91
2021/09/02 05:32:15;;;;;;;14.50;12.23;;;14.00;91.60;;;;;;5010053;28;20206;-90
2021/09/02 05:34:41;;;;;;;12.53;11.23;;;14.00;91.30;;;;;;4996116;28;20249;-91
2021/09/02 05:37:07;;;;;;;12.07;10.90;;;14.10;91.30;;;;;;4981784;28;20222;-91
2021/09/02 05:39:32;;;;;;;13.13;11.83;;;14.00;91.40;;;;;;4999778;28;20222;-91
2021/09/02 05:41:58;;;;;;;13.30;12.00;;;14.00;92.00;;;;;;4996380;28;20185;-91
2021/09/02 05:44:24;;;;;;;13.90;12.50;;;13.90;92.70;;;;;;5013511;28;20299;-90
2021/09/02 05:46:51;;;;;;;14.07;12.30;;;13.80;93.00;;;;;;5000685;28;20292;-91
2021/09/02 05:49:16;;;;;;;14.67;11.73;;;13.80;93.10;;;;;;4999137;28;20192;-91
2021/09/02 05:51:42;;;;;;;13.63;12.10;;;13.80;92.80;;;;;;5002572;28;20207;-90
2021/09/02 05:54:08;;;;;;;12.50;11.13;;;14.00;92.50;;;;;;5002847;28;20223;-91
2021/09/02 05:56:34;;;;;;;13.80;11.57;;;14.00;92.20;;;;;;5002563;28;20476;-90
2021/09/02 05:58:59;;;;;;;13.27;11.83;;;14.00;92.70;;;;;;5002508;28;20201;-90
2021/09/02 06:01:25;;;;;;;12.60;11.40;;;14.00;92.50;;;;;;5002801;28;20201;-90
2021/09/02 06:03:51;;;;;;;12.87;11.57;;;14.10;92.30;;;;;;5000357;28;20232;-90
2021/09/02 06:06:16;;;;;;;11.57;10.33;;;14.20;91.70;;;;;;4992616;28;20196;-90
2021/09/02 06:08:42;;;;;;;12.57;11.23;;;14.20;92.00;;;;;;5003719;28;20230;-90
2021/09/02 06:11:08;;;;;;;12.50;11.33;;;14.20;91.70;;;;;;5004353;28;20204;-90
2021/09/02 06:13:34;;;;;;;13.30;11.37;;;14.20;92.10;;;;;;5016440;28;20193;-89
2021/09/02 06:16:01;;;;;;;12.80;11.50;;;14.10;92.20;;;;;;5017364;28;20185;-89
2021/09/02 06:18:28;;;;;;;11.87;10.67;;;14.10;92.50;;;;;;5013333;28;20248;-90
2021/09/02 06:20:53;;;;;;;11.67;10.47;;;14.10;93.00;;;;;;5024047;28;20190;-90
2021/09/02 06:23:19;;;;;;;11.83;10.63;;;14.20;92.20;;;;;;5000691;28;20217;-90
2021/09/02 06:25:45;;;;;;;12.50;10.80;;;14.20;92.20;;;;;;5004050;28;20700;-90
2021/09/02 06:28:11;;;;;;;12.50;10.70;;;14.30;91.70;;;;;;5000455;28;20197;-90
2021/09/02 06:30:37;;;;;;;10.77;9.63;;;14.40;91.00;;;;;;4987839;28;20259;-89
2021/09/02 06:33:03;;;;;;;11.37;10.27;;;14.50;90.70;;;;;;4996914;28;20205;-90
2021/09/02 06:35:29;;;;;;;11.67;10.47;;;14.40;90.80;;;;;;5003183;28;20255;-90
2021/09/02 06:37:55;;;;;;;11.17;10.17;;;14.50;91.30;;;;;;5002750;28;20302;-87
2021/09/02 06:40:20;;;;;;;10.87;9.80;;;14.50;91.00;;;;;;5004369;28;20202;-85
2021/09/02 06:42:46;;;;;;;11.20;10.20;;;14.70;91.20;;;;;;4997642;28;20205;-86
2021/09/02 06:45:12;;;;;;;11.37;10.23;;;14.80;89.70;;;;;;4997911;28;20214;-85
2021/09/02 06:47:39;;;;;;;12.63;10.13;;;15.00;89.00;;;;;;4998426;28;20296;-85
2021/09/02 06:50:07;;;;;;;11.60;10.50;;;15.00;88.50;;;;;;4999862;28;20225;-86
2021/09/02 06:52:33;;;;;;;13.00;9.80;;;15.00;88.40;;;;;;4997424;28;20194;-89
2021/09/02 06:54:58;;;;;;;11.40;10.30;;;14.90;88.90;;;;;;5015482;28;20218;-89
2021/09/02 06:57:24;;;;;;;11.97;9.97;;;14.90;88.80;;;;;;5013582;28;20694;-89
2021/09/02 06:59:50;;;;;;;12.57;10.10;;;15.00;88.20;;;;;;5006961;28;20195;-90
2021/09/02 07:02:16;;;;;;;10.73;9.23;;;15.00;88.10;;;;;;4998676;28;20214;-88
2021/09/02 07:04:42;;;;;;;10.40;9.40;;;15.10;87.90;;;;;;4996173;28;20747;-88
2021/09/02 07:07:07;;;;;;;10.80;9.70;;;15.20;87.60;;;;;;4997425;28;20225;-88
2021/09/02 07:09:33;;;;;;;11.10;10.07;;;15.30;87.50;;;;;;4997898;28;20200;-89
2021/09/02 07:12:00;;;;;;;11.40;10.20;;;15.30;87.20;;;;;;5015343;28;20194;-87
2021/09/02 07:14:26;;;;;;;11.43;9.80;;;15.30;87.70;;;;;;5000746;28;20225;-89
2021/09/02 07:16:52;;;;;;;12.13;9.67;;;15.40;87.30;;;;;;5001768;28;20221;-89
2021/09/02 07:19:18;;;;;;;10.63;9.60;;;15.60;86.30;;;;;;4998854;28;20194;-90
2021/09/02 07:21:43;;;;;;;11.57;10.37;;;15.70;86.40;;;;;;4999908;28;20182;-89
2021/09/02 07:24:09;;;;;;;9.80;8.60;;;15.70;85.40;;;;;;4998834;28;20219;-90
2021/09/02 07:26:36;;;;;;;10.93;9.53;;;15.80;85.70;;;;;;4983271;28;20206;-88
2021/09/02 07:29:03;;;;;;;10.50;9.60;;;15.80;84.80;;;;;;4999932;28;20220;-87
2021/09/02 07:31:28;;;;;;;10.50;9.43;;;15.90;85.50;;;;;;4985803;28;20757;-89
2021/09/02 07:33:54;;;;;;;9.70;8.63;;;16.00;85.20;;;;;;5001374;28;20252;-90
2021/09/02 07:36:20;;;;;;;9.67;8.80;;;16.10;84.60;;;;;;5014466;28;20214;-90
2021/09/02 07:38:45;;;;;;;9.67;8.77;;;16.20;82.10;;;;;;5003092;28;20194;-90
2021/09/02 07:41:11;;;;;;;10.37;9.37;;;16.40;82.10;;;;;;5003404;28;20254;-88
2021/09/02 07:43:37;;;;;;;9.63;8.70;;;16.40;82.00;;;;;;5003239;28;20193;-88
2021/09/02 07:46:03;;;;;;;9.27;8.47;;;16.40;80.50;;;;;;5002215;28;20197;-88
2021/09/02 07:48:28;;;;;;;9.90;8.77;;;16.60;81.40;;;;;;4999716;28;20212;-89
2021/09/02 07:50:54;;;;;;;9.23;8.43;;;16.70;82.20;;;;;;5003040;28;20199;-90
2021/09/02 07:53:21;;;;;;;9.10;8.13;;;16.80;81.40;;;;;;5017056;28;20282;-90
2021/09/02 07:55:47;;;;;;;10.30;9.30;;;16.90;81.00;;;;;;5004879;28;20758;-90
2021/09/02 07:58:13;;;;;;;10.80;8.27;;;17.00;80.30;;;;;;5004405;28;20694;-88
2021/09/02 08:00:39;;;;;;;9.53;8.63;;;17.10;80.10;;;;;;5003285;28;20722;-88
2021/09/02 08:03:05;;;;;;;9.13;8.23;;;17.20;79.50;;;;;;5005097;28;20237;-87
2021/09/02 08:05:30;;;;;;;10.17;8.07;;;17.20;79.30;;;;;;4985853;28;20213;-89
2021/09/02 08:07:56;;;;;;;9.07;8.03;;;17.30;79.20;;;;;;4997110;28;20206;-89
2021/09/02 08:10:24;;;;;;;8.37;7.67;;;17.40;78.60;;;;;;4995235;28;20271;-89
2021/09/02 08:12:51;;;;;;;9.10;8.20;;;17.40;77.80;;;;;;5004122;28;20217;-90
2021/09/02 08:15:19;;;;;;;8.50;7.70;;;17.50;77.50;;;;;;5004335;28;20254;-89
2021/09/02 08:17:45;;;;;;;10.50;7.97;;;17.50;77.70;;;;;;5002996;28;20214;-90
2021/09/02 08:20:12;;;;;;;8.50;7.70;;;17.70;77.50;;;;;;5003348;28;20192;-90
2021/09/02 08:22:39;;;;;;;10.27;8.23;;;17.80;76.40;;;;;;5002686;28;20497;-88
2021/09/02 08:25:07;;;;;;;8.40;7.47;;;18.00;75.60;;;;;;5004656;28;20206;-90
2021/09/02 08:27:33;;;;;;;8.90;7.50;;;18.00;75.40;;;;;;5020774;28;20236;-90
2021/09/02 08:29:59;;;;;;;8.67;7.77;;;18.10;75.90;;;;;;5005643;28;20199;-88
2021/09/02 08:32:24;;;;;;;7.83;7.03;;;18.30;74.20;;;;;;5018232;28;20249;-90
2021/09/02 08:34:50;;;;;;;8.30;7.47;;;18.50;74.60;;;;;;5019791;28;20228;-90
2021/09/02 08:37:16;;;;;;;8.30;7.50;;;18.60;72.40;;;;;;5013445;28;20709;-88
2021/09/02 08:39:42;;;;;;;7.87;7.17;;;18.60;72.10;;;;;;5000303;28;20179;-87
2021/09/02 08:42:08;;;;;;;8.27;7.57;;;18.70;73.20;;;;;;4999539;28;20210;-90
2021/09/02 08:44:34;;;;;;;9.20;8.07;;;18.90;71.00;;;;;;5015690;28;20209;-88
2021/09/02 08:47:00;;;;;;;9.63;7.50;;;19.00;71.00;;;;;;4998826;28;20205;-88
2021/09/02 08:49:27;;;;;;;8.60;7.70;;;19.10;70.70;;;;;;5001877;28;20205;-88
2021/09/02 08:51:53;;;;;;;7.80;7.00;;;19.30;70.10;;;;;;5001042;28;20196;-88
2021/09/02 08:54:20;;;;;;;8.65;7.72;;;19.50;70.40;;;;;;5001879;28;20597;-87
2021/09/02 08:56:46;;;;;;;7.47;6.77;;;19.60;69.40;;;;;;5014739;28;20244;-88
2021/09/02 08:59:12;;;;;;;7.93;7.18;;;19.60;68.00;;;;;;5000350;28;20200;-88
2021/09/02 09:01:38;;;;;;;8.25;7.55;;;19.70;68.40;;;;;;4998272;28;20561;-91
2021/09/02 09:04:11;;;;;;;29.17;10.63;;;19.80;68.70;;;;;;4996359;28;20621;-88
2021/09/02 09:06:38;;;;;;;7.60;6.82;;;20.10;68.70;;;;;;4994835;28;20206;-88
2021/09/02 09:09:15;;;;;;;8.00;7.30;;;20.10;67.70;;;;;;4990716;28;20216;-88
2021/09/02 09:11:48;;;;;;;25.63;11.07;;;20.10;67.50;;;;;;4996346;28;20225;-88
2021/09/02 09:14:17;;;;;;;8.70;7.72;;;20.20;67.70;;;;;;5013738;28;20234;-88
2021/09/02 09:16:55;;;;;;;13.98;9.30;;;20.50;65.30;;;;;;4994489;28;20226;-88
2021/09/02 09:19:50;;;;;;;7.65;6.95;;;20.70;66.40;;;;;;4997125;28;20220;-88
2021/09/02 09:22:17;;;;;;;8.00;7.30;;;20.90;65.00;;;;;;4984503;28;20565;-89
2021/09/02 09:24:50;;;;;;;7.38;6.70;;;21.10;64.50;;;;;;4994975;28;20206;-89
2021/09/02 09:27:47;;;;;;;8.20;7.40;;;21.10;63.30;;;;;;4996606;28;20724;-89
2021/09/02 09:30:21;;;;;;;7.10;6.50;;;21.30;61.10;;;;;;4999686;28;20197;-89
2021/09/02 09:32:57;;;;;;;7.70;6.93;;;21.50;59.50;;;;;;5009791;28;20677;-89
2021/09/02 09:35:28;;;;;;;7.18;6.57;;;21.80;57.70;;;;;;4997945;28;20651;-88
2021/09/02 09:38:18;;;;;;;7.22;6.63;;;21.90;57.50;;;;;;4997841;28;20243;-89
2021/09/02 09:40:49;;;;;;;7.00;6.18;;;21.90;58.60;;;;;;4996734;28;20256;-89
2021/09/02 09:43:14;;;;;;;7.32;6.63;;;22.20;58.10;;;;;;4999115;28;20194;-89
2021/09/02 09:45:53;;;;;;;7.72;7.05;;;22.30;58.70;;;;;;4996220;28;20218;-89
2021/09/02 09:48:38;;;;;;;7.70;7.03;;;22.30;57.80;;;;;;5002361;28;20654;-89
2021/09/02 09:51:13;;;;;;;7.00;6.30;;;22.40;56.40;;;;;;4999817;28;20194;-89
2021/09/02 09:53:41;;;;;;;6.78;6.18;;;22.60;55.00;;;;;;4998913;28;20186;-89
2021/09/02 09:56:07;;;;;;;9.75;6.70;;;22.60;53.90;;;;;;4997353;28;20186;-88
2021/09/02 09:58:33;;;;;;;7.00;6.38;;;22.90;53.70;;;;;;4984996;28;20261;-89
2021/09/02 10:01:05;;;;;;;7.20;6.53;;;23.20;52.80;;;;;;4996887;28;20222;-89
2021/09/02 10:03:31;;;;;;;7.20;6.55;;;23.20;52.40;;;;;;4995369;28;20270;-89
2021/09/02 10:06:05;;;;;;;7.18;6.57;;;23.30;51.10;;;;;;4999074;28;20182;-89
2021/09/02 10:08:33;;;;;;;7.75;6.82;;;23.50;52.00;;;;;;5006133;28;20242;-89
2021/09/02 10:11:02;;;;;;;6.88;6.28;;;23.70;51.40;;;;;;5007787;28;20201;-89
2021/09/02 10:13:29;;;;;;;7.38;6.65;;;23.90;51.30;;;;;;5012183;28;20238;-89
2021/09/02 10:15:55;;;;;;;6.68;6.18;;;23.90;49.30;;;;;;5002526;28;20186;-89
2021/09/02 10:18:21;;;;;;;7.20;6.60;;;24.10;49.60;;;;;;4997360;28;20201;-89
2021/09/02 10:20:48;;;;;;;7.82;7.03;;;24.30;48.20;;;;;;5014572;28;20186;-89
2021/09/02 10:23:25;;;;;;;7.75;7.07;;;24.30;48.30;;;;;;4998765;28;20190;-89
2021/09/02 10:25:51;;;;;;;6.72;6.20;;;24.40;47.90;;;;;;5002754;28;20244;-89
2021/09/02 10:28:34;;;;;;;9.05;6.75;;;24.50;48.40;;;;;;4997575;28;20395;-89
2021/09/02 10:31:01;;;;;;;7.28;6.68;;;24.40;48.60;;;;;;4985171;28;20238;-89
2021/09/02 10:33:35;;;;;;;7.18;6.50;;;24.50;47.90;;;;;;4988496;28;20205;-89
2021/09/02 10:36:21;;;;;;;7.28;6.68;;;24.70;47.30;;;;;;4982904;28;20201;-89
2021/09/02 10:38:52;;;;;;;8.13;7.05;;;25.00;47.00;;;;;;4999268;28;20208;-89
2021/09/02 10:41:45;;;;;;;10.10;7.35;;;25.00;46.70;;;;;;4993460;28;20462;-88
2021/09/02 10:44:12;;;;;;;9.45;6.88;;;25.00;45.80;;;;;;4998661;28;20216;-89
2021/09/02 10:46:39;;;;;;;9.68;6.90;;;25.10;45.50;;;;;;5008645;28;20198;-89
2021/09/02 10:49:26;;;;;;;7.03;6.25;;;25.30;45.40;;;;;;4997198;28;20214;-89
2021/09/02 10:51:58;;;;;;;6.95;6.00;;;25.50;45.20;;;;;;4998098;28;20205;-89
2021/09/02 10:54:35;;;;;;;7.43;6.60;;;25.50;45.40;;;;;;5006199;28;20212;-89
2021/09/02 10:57:09;;;;;;;7.63;6.90;;;25.40;44.70;;;;;;5001472;28;20222;-89
2021/09/02 10:59:52;;;;;;;7.95;7.05;;;25.50;43.30;;;;;;5002284;28;20695;-89
2021/09/02 11:02:17;;;;;;;7.32;6.63;;;25.60;43.80;;;;;;5003064;28;20205;-89
2021/09/02 11:04:44;;;;;;;7.32;6.63;;;25.80;43.20;;;;;;4997200;28;20210;-89
2021/09/02 11:07:10;;;;;;;6.60;6.00;;;26.00;43.70;;;;;;4988907;28;20194;-89
2021/09/02 11:09:42;;;;;;;7.03;6.35;;;26.10;42.10;;;;;;5002712;28;20542;-89
2021/09/02 11:12:12;;;;;;;7.60;6.93;;;26.30;41.40;;;;;;5016513;28;20208;-89
2021/09/02 11:14:44;;;;;;;7.82;7.00;;;26.10;41.10;;;;;;5000246;28;20244;-89
2021/09/02 11:17:11;;;;;;;6.32;5.80;;;26.20;41.50;;;;;;5003576;28;20202;-89
2021/09/02 11:19:39;;;;;;;7.80;7.10;;;26.30;41.20;;;;;;5010979;28;20187;-89
2021/09/02 11:22:25;;;;;;;8.00;7.20;;;26.60;42.30;;;;;;5018914;28;20189;-89
2021/09/02 11:24:52;;;;;;;7.95;7.15;;;26.90;40.60;;;;;;5013612;28;20230;-89
2021/09/02 11:27:31;;;;;;;7.63;6.97;;;26.70;40.60;;;;;;4999175;28;20202;-89
2021/09/02 11:30:25;;;;;;;8.70;7.00;;;27.00;40.50;;;;;;4999868;28;20522;-89
2021/09/02 11:32:58;;;;;;;7.90;7.13;;;26.60;40.10;;;;;;5013047;28;20190;-89
2021/09/02 11:35:23;;;;;;;8.00;7.30;;;26.70;40.20;;;;;;4997904;28;20222;-89
2021/09/02 11:37:49;;;;;;;7.72;7.00;;;26.70;40.00;;;;;;4997414;28;20760;-89
2021/09/02 11:40:30;;;;;;;8.10;7.35;;;26.80;40.00;;;;;;5015499;28;20221;-89
2021/09/02 11:42:57;;;;;;;9.27;7.20;;;26.80;40.20;;;;;;5000228;28;20229;-89
2021/09/02 11:45:25;;;;;;;7.72;7.03;;;26.70;40.70;;;;;;5019220;28;20222;-89
2021/09/02 11:47:51;;;;;;;7.70;7.10;;;26.90;40.30;;;;;;5003859;28;20194;-89
2021/09/02 11:50:20;;;;;;;8.50;7.28;;;27.30;39.90;;;;;;5003894;28;20197;-89
2021/09/02 11:52:48;;;;;;;8.55;7.85;;;27.50;39.30;;;;;;5000355;28;20214;-89
2021/09/02 11:55:28;;;;;;;7.28;6.63;;;27.40;39.10;;;;;;5002230;28;20206;-89
2021/09/02 11:57:56;;;;;;;8.00;7.07;;;27.80;38.50;;;;;;5002266;28;20214;-89
2021/09/02 12:00:22;;;;;;;7.72;7.13;;;27.80;38.30;;;;;;5017594;28;20248;-88
2021/09/02 12:02:50;;;;;;;9.00;6.47;;;27.90;37.80;;;;;;5004001;28;20182;-89
2021/09/02 12:05:22;;;;;;;7.78;7.10;;;27.70;38.00;;;;;;5000235;28;20202;-89
2021/09/02 12:07:50;;;;;;;7.68;7.07;;;27.90;37.80;;;;;;5017505;28;20201;-90
2021/09/02 12:10:17;;;;;;;8.27;6.85;;;28.10;37.90;;;;;;5013821;28;20194;-89
2021/09/02 12:12:44;;;;;;;7.75;6.93;;;28.30;37.90;;;;;;4999505;28;20190;-89
2021/09/02 12:15:23;;;;;;;7.75;7.00;;;28.40;37.50;;;;;;5002345;28;20202;-89
2021/09/02 12:17:50;;;;;;;7.30;6.57;;;28.30;37.30;;;;;;4999400;28;20253;-88
2021/09/02 12:20:24;;;;;;;7.60;6.95;;;28.00;37.30;;;;;;5000735;28;20186;-88
2021/09/02 12:22:50;;;;;;;7.45;6.85;;;28.00;38.10;;;;;;5002025;28;20189;-88
2021/09/02 12:25:21;;;;;;;6.93;6.40;;;28.60;36.30;;;;;;5004204;28;20218;-88
2021/09/02 12:27:52;;;;;;;7.47;6.88;;;28.50;36.50;;;;;;5006800;28;20244;-88
2021/09/02 12:30:42;;;;;;;7.53;6.82;;;28.50;36.20;;;;;;4996981;28;20269;-88
2021/09/02 12:33:19;;;;;;;7.63;6.90;;;28.70;36.50;;;;;;5004718;28;20294;-88
2021/09/02 12:35:46;;;;;;;9.05;7.00;;;28.80;36.00;;;;;;5006705;28;20520;-88
2021/09/02 12:38:37;;;;;;;7.47;6.82;;;28.90;34.40;;;;;;5006558;28;20256;-88
2021/09/02 12:41:29;;;;;;;8.02;7.28;;;28.90;35.00;;;;;;5013867;28;20179;-88
2021/09/02 12:44:07;;;;;;;7.80;7.15;;;29.10;35.30;;;;;;5001719;28;20217;-88
2021/09/02 12:47:11;;;;;;;7.78;7.18;;;29.00;36.10;;;;;;5007562;28;20209;-88